Aviation Digital Data Service (ADDS)

Output produced by METARs form (0000 UTC 24 May 2022)
found at http://www.aviationweather.gov/metar/data/
 
TAF KBAB 231900Z 2319/2501 33010G15KT 9999 SKC QNH2977INS 
     BECMG 2402/2403 34009KT 9999 SKC QNH2978INS TX34/2323Z TN15/2413Z
       
TAF COR KBAD 232008Z 2320/2502 01006KT 9999 OVC017 QNH2999INS 
     BECMG 2318/2320 03006KT 9999 BKN020 QNH2991INS 
     BECMG 2406/2407 09010KT 9999 OVC010 QNH2987INS 
     BECMG 2414/2415 13014G20KT 9999 VCSH OVC015 QNH2981INS 
     BECMG 2417/2418 15015G25KT 9999 -SHRA VCTS OVC020CB QNH2979INS 
     TEMPO 2418/2422 23020G30KT 4800 TSRA OVC010CB 
     BECMG 2422/2423 14012KT 9999 VCSH OVC035 QNH2975INS TX23/2321Z TN17/2412Z
       
KBAF 232320Z 2400/2424 01007KT P6SM SCT250 
     FM240200 03004KT P6SM BKN200 
     FM241200 03008KT P6SM BKN250 
     FM241700 12009KT P6SM SCT110
       
KBAM 232328Z 2400/2424 34011KT P6SM SCT200 
     FM240200 VRB06KT P6SM FEW200 
     FM241800 34008G18KT P6SM FEW250
       
KBBD 232328Z 2400/2424 17011KT P6SM VCSH BKN040 
     FM240300 15010KT P6SM SCT060 BKN200 
     FM240500 14010KT P6SM SCT060 
     FM241100 16008KT P6SM BKN020 
     FM241500 18011KT P6SM SCT040 AMD NOT SKED
       
KBBG 232320Z 2400/2424 11006KT P6SM OVC015 
     FM241200 11008KT P6SM OVC015 
     PROB30 2415/2418 4SM -SHRA BR OVC009 
     FM241800 11010G20KT P6SM VCSH OVC015 
     TEMPO 2420/2424 4SM -SHRA BR OVC009
       
KBCB 232342Z 2400/2424 07008KT 4SM SHRA BR OVC008 
     FM240500 07007KT 3SM SHRA BR OVC003 
     FM241400 07005KT 6SM BR OVC004
       
KBCE 232320Z 2400/2424 32012G22KT P6SM FEW100 
     FM240400 34011KT P6SM FEW250 
     FM241900 31012KT P6SM FEW250
       
KBDL 232320Z 2400/2506 02005KT P6SM BKN150 
     FM241400 06007KT P6SM BKN250 
     FM242200 14008KT P6SM SCT080
       
KBDR 232322Z 2400/2424 VRB04KT P6SM SCT120 BKN200 
     FM240200 07005KT P6SM SCT120 BKN200 
     FM240500 04005KT P6SM BKN100 
     FM241300 07009KT P6SM OVC100 
     FM241600 11009KT P6SM BKN100 
     FM241800 14009KT P6SM SCT120 BKN250
       
KBED 232320Z 2400/2424 10007KT P6SM SCT250 
     FM240200 02004KT P6SM BKN200 
     FM241400 06007KT P6SM BKN250 
     FM242300 11006KT P6SM FEW150
       
KBFD 232321Z 2400/2424 07003KT P6SM SCT050 OVC200 
     FM241400 12005KT P6SM OVC050 
     FM241700 13005KT P6SM OVC025
       
KBFF 232327Z 2400/2424 10010KT P6SM SCT050 
     FM241100 18005KT 6SM BR VCFG FEW008 BKN015 
     FM241500 36006KT P6SM BKN020 OVC050 
     FM241900 11010KT P6SM OVC050
       
KBFI 232339Z 2400/2424 32008KT P6SM SCT050 SCT250 
     FM240700 VRB04KT P6SM SCT040 BKN050 
     FM241200 18006KT P6SM OVC040 
     FM241800 23005KT P6SM BKN050
       
KBFL 232320Z 2400/2424 32011KT P6SM SKC
       
KBFM 232337Z 2400/2424 00000KT P6SM VCSH FEW028 
     FM240400 11006KT P6SM VCSH SCT020 OVC100 
     FM241400 11008KT P6SM VCSH SCT035 BKN120 
     PROB30 2415/2421 4SM TSRA BKN020CB BKN035
       
KBGM 232329Z 2400/2424 34005KT P6SM OVC200 
     FM241400 14006KT P6SM SCT120 
     FM242000 17008KT P6SM BKN050
       
KBGR 232322Z 2400/2424 36007KT P6SM FEW250 
     FM241200 02006KT P6SM FEW250
       
KBHB 232322Z 2400/2424 01006KT P6SM FEW250 
     FM241200 04006KT P6SM FEW250 
     FM241800 16008KT P6SM FEW250
       
KBHM 232340Z 2400/2424 VRB03KT P6SM FEW100 BKN250 
     FM240700 00000KT 5SM BR BKN100 
     FM241000 VRB03KT 4SM BR OVC007 
     FM241400 VRB04KT P6SM SCT025 BKN050 
     PROB30 2418/2424 4SM TSRA BR OVC025CB
       
TAF KBIF 232200Z 2322/2504 24015KT 9999 SKC 510073 QNH2976INS 
     BECMG 2409/2410 VRB06KT 9999 SKC 510073 QNH2982INS 
     BECMG 2415/2416 27015KT 9999 SKC QNH2979INS 
     BECMG 2420/2421 28020G25KT 9999 FEW160 510053 QNH2970INS 
     BECMG 2501/2502 30015KT 9999 SKC 510053 QNH2971INS TX31/2422Z TN12/2412Z
       
KBIH 232320Z 2400/2424 35010G16KT P6SM SCT250 
     FM240400 35008KT P6SM FEW250 
     FM241200 VRB05KT P6SM SKC 
     FM242100 35006KT P6SM SKC
       
KBIL 232320Z 2400/2424 VRB06KT P6SM BKN110 
     FM240600 VRB05KT P6SM FEW250 
     FM241700 12006KT P6SM FEW090 BKN140
       
KBIS 232338Z 2400/2424 20014G22KT 6SM -RA VCTS OVC080CB 
     TEMPO 2400/2402 25020G30KT 4SM -TSRA BKN040CB 
     FM240300 17008KT P6SM SCT100 
     FM241700 16012KT P6SM SCT050
       
TAF AMD KBIX 231851Z 2318/2424 15009KT 9999 VCTS SCT015CB BKN030 OVC150
QNH3004INS 
     TEMPO 2318/2320 17012G18KT 6000 -TSRA BKN010CB OVC025 
     BECMG 2320/2321 13010KT 9999 VCSH SCT010 BKN035 QNH2999INS 
     BECMG 2405/2406 14009KT 9999 VCTS BKN010CB OVC025 QNH2996INS 
     TEMPO 2415/2421 15012G22KT 3200 -TSRA SCT007 BKN018CB OVC030 
     BECMG 2421/2422 16010G15KT 9999 VCSH SCT020 BKN035 QNH2990INS TX29/2418Z
TN23/2411Z
       
KBJC 232327Z 2400/2424 01011G17KT P6SM BKN050 BKN200 
     FM240200 01010KT P6SM VCSH SCT035 BKN050 
     FM240700 34007KT P6SM BKN018 BKN050 
     FM241200 34007KT P6SM VCSH BKN008 OVC016 
     FM241800 36007KT P6SM SCT012 BKN020 BKN040 
     FM242100 01008KT P6SM SCT020 BKN045
       
KBJI 232330Z 2400/2424 19008KT P6SM BKN070 
     FM240400 18006KT P6SM VCSH BKN070 
     FM240800 21005KT P6SM SCT100
       
KBKE 232332Z 2400/2424 32009KT P6SM VCSH BKN060 
     TEMPO 2400/2402 33010G20KT -SHRA BKN040 
     FM240400 VRB04KT P6SM SCT200 
     FM241800 VRB05KT P6SM BKN100
       
TAF KBKF 231714Z 2317/2423 34015KT 9999 SKC QNH3001INS 
     BECMG 2321/2322 28010G15KT 9999 FEW210 520083 QNH2998INS 
     BECMG 2406/2407 VRB06KT 9999 FEW035 QNH3006INS 
     BECMG 2410/2411 VRB06KT 9000 BR SCT017 QNH3005INS 
     BECMG 2416/2417 VRB06KT 9999 NSW SCT025 QNH2996INS TX15/2323Z TN05/2411Z
       
KBKW 232345Z 2400/2424 09007KT 5SM -SHRA BR OVC035 
     TEMPO 2400/2404 6SM BR OVC020 
     FM240400 12007KT 3SM -SHRA BR OVC003 
     FM240600 12008KT 2SM BR OVC002 
     FM241100 11007KT 2SM BR OVC003 
     FM241500 11007KT 4SM BR OVC006 
     FM241900 11007KT P6SM BKN011
       
KBLF 232339Z 2400/2424 07007KT 4SM SHRA BR BKN005 OVC009 
     FM240500 09005KT 3SM SHRA BR OVC004 
     FM241400 10005KT 5SM BR OVC006 
     FM241900 08006KT P6SM OVC012
       
KBLH 232337Z 2400/2424 18010G18KT P6SM FEW250 
     FM240300 19005KT P6SM FEW250 
     FM241300 VRB05KT P6SM FEW250 
     FM241600 18006KT P6SM FEW250 
     FM242000 20010G18KT P6SM FEW250
       
KBLI 232339Z 2400/2424 18010KT P6SM BKN060 BKN090 
     FM240900 19006KT P6SM OVC040 
     FM241700 17010G16KT P6SM OVC050
       
TAF KBLV 231600Z 2316/2422 07012G18KT 9999 FEW200 QNH3025INS 
     BECMG 2322/2323 VRB06KT 9999 FEW075 QNH3011INS 
     BECMG 2413/2414 05006KT 9999 SCT015 BKN025 QNH3010INS TX20/2320Z TN10/2407Z
       
KBMG 232320Z 2400/2424 06006KT P6SM FEW250 
     FM241600 08008KT P6SM FEW200 AMD LTD TO CLD VIS AND WIND 2401/2413
       
KBMI 232350Z 2400/2424 05010KT P6SM FEW050 SCT250 
     FM241500 08012G19KT P6SM SCT050 BKN100
       
KBNA 232347Z 2400/2424 02008KT P6SM BKN020 OVC025 
     FM240200 03005KT P6SM OVC020 
     FM240900 00000KT 6SM BR OVC025 
     FM241400 09004KT P6SM BKN050 
     FM241700 09005KT P6SM SCT050
       
KBNO 232332Z 2400/2424 30010G18KT P6SM VCSH SCT080 
     FM240400 27006KT P6SM SKC 
     FM242200 30010KT P6SM BKN080
       
KBOI 232332Z 2400/2424 32009G16KT P6SM SCT100 
     FM240300 30007KT P6SM SCT200
       
KBOS 232320Z 2400/2506 11007KT P6SM SCT250 
     FM240200 02006KT P6SM BKN200 
     FM241600 07010KT P6SM SCT250 
     FM250000 11006KT P6SM FEW250
       
KBPI 232320Z 2400/2424 29015G25KT P6SM BKN050 
     FM240200 32011KT P6SM OVC100 
     FM240500 VRB05KT P6SM OVC100 
     FM241800 29015G25KT P6SM VCSH OVC070
       
KBPK 232322Z 2400/2424 VRB05KT P6SM SCT060 
     FM241100 VRB05KT P6SM BKN020 
     FM241800 11009KT 6SM SHRA BR VCTS BKN015CB
       
KBPT 232344Z 2400/2424 05008KT P6SM SKC 
     FM240800 14009KT P6SM SCT010 OVC025 
     FM241200 15012G18KT 3SM TSRA SCT010 OVC025CB 
     FM241900 16016G22KT P6SM BKN070
       
KBRD 232320Z 2400/2424 18008KT P6SM BKN060
       
KBRL 232320Z 2400/2424 10007KT P6SM BKN150 
     FM242100 09012G20KT P6SM OVC090
       
KBRO 232320Z 2400/2424 12015KT P6SM BKN035 
     FM240300 13011KT P6SM BKN035 
     FM240500 13011KT P6SM BKN024 
     FM240800 14012KT P6SM VCTS BKN040CB 
     FM240900 15013KT P6SM BKN018 
     PROB30 2409/2412 4SM TSRA BR OVC008CB 
     FM241200 15016KT P6SM BKN050 
     PROB30 2412/2415 4SM TSRA BR OVC025CB
       
KBTL 232325Z 2400/2424 07007KT P6SM BKN250
       
KBTM 232324Z 2400/2424 30008G18KT P6SM VCSH BKN100 
     FM240400 17005KT P6SM BKN070 
     FM241600 33006KT P6SM VCSH OVC070
       
KBTR 231757Z 2318/2418 07006KT P6SM VCTS BKN035CB 
     TEMPO 2320/2324 4SM TSRA BKN025CB 
     FM240100 08005KT P6SM SCT020 BKN060 
     FM240600 VRB04KT P6SM SCT005 BKN015 
     FM241500 10006KT P6SM SCT025 BKN070
       
KBTV 232321Z 2400/2424 36007KT P6SM SCT200
       
KBUF 232329Z 2400/2424 02004KT P6SM OVC250 
     FM240200 05004KT P6SM BKN250 
     FM240500 08004KT P6SM SCT250 
     FM241700 05005KT P6SM FEW200 
     FM242200 05008KT P6SM BKN070
       
KBUR 232337Z 2400/2424 18008KT P6SM SKC 
     FM240300 VRB03KT P6SM SKC 
     FM241000 14005KT 4SM BR BKN006 
     FM241600 VRB03KT P6SM SCT010 
     FM242000 19010KT P6SM SKC
       
KBVI 232323Z 2400/2424 02003KT P6SM BKN100 
     FM241600 09004KT P6SM BKN030 
     FM242200 11005KT P6SM BKN040
       
KBVO 232320Z 2400/2424 09006KT 6SM -RA VCTS OVC020CB 
     TEMPO 2400/2404 4SM -TSRA OVC015CB 
     FM240600 07005KT P6SM VCSH OVC012 
     TEMPO 2406/2410 4SM -SHRA OVC007 
     FM241000 13007KT P6SM VCSH OVC006 
     PROB30 2415/2421 2SM TSRA OVC006CB
       
KBWG 232339Z 2400/2424 04006KT P6SM BKN025 
     FM240800 05003KT P6SM BKN015 
     FM241300 07006KT P6SM BKN018 
     FM241500 08007KT P6SM BKN025 
     FM241700 09008KT P6SM SCT040
       
KBWI 232321Z 2400/2506 35006KT P6SM VCSH SCT060 OVC130 
     FM240400 01005KT 6SM -RA SCT035 BKN050 OVC100 
     FM240900 06005KT 5SM -RA BR SCT025 OVC035 
     FM241300 08008KT P6SM VCSH SCT025 OVC050 
     FM242000 05008G16KT P6SM VCSH OVC050 
     FM250200 08004KT P6SM SCT060 BKN090
       
KBYI 232321Z 2400/2424 25010G18KT P6SM SCT200 
     FM241200 25008KT P6SM SCT200 
     FM241600 27013G23KT P6SM FEW200
       
KBZN 232324Z 2400/2506 VRB06KT P6SM SCT100 
     FM241800 27011KT P6SM VCSH BKN090 
     FM250100 VRB06KT P6SM BKN090